Time;durP1;ratioP1;P1;durP2;ratioP2;P2;SDS_P1;SDS_P2;PMS_P1;PMS_P2;Temp;Humidity;BMP_temperature;BMP_pressure;BME280_temperature;BME280_humidity;BME280_pressure;Samples;Min_cycle;Max_cycle;Signal;HPM_P1;HPM_P2
2023/05/29 00:00:49;;;;;;;;;;;;;;;11.13;64.41;102254.16;5039268;28;20381;-74
2023/05/29 00:03:15;;;;;;;;;;;;;;;11.12;64.54;102248.00;5025902;28;19950;-72
2023/05/29 00:05:40;;;;;;;;;;;;;;;11.14;64.41;102261.16;5020997;28;20486;-72
2023/05/29 00:08:06;;;;;;;;;;;;;;;11.07;63.85;102250.56;5009738;28;19957;-72
2023/05/29 00:10:32;;;;;;;;;;;;;;;11.15;63.85;102258.22;5038605;28;20028;-71
2023/05/29 00:13:00;;;;;;;;;;;;;;;11.21;64.09;102254.59;4992908;28;20047;-75
2023/05/29 00:15:27;;;;;;;;;;;;;;;11.23;64.00;102254.38;5040479;28;19991;-72
2023/05/29 00:17:52;;;;;;;;;;;;;;;11.13;64.40;102260.34;5011997;28;20616;-71
2023/05/29 00:20:18;;;;;;;;;;;;;;;11.18;63.98;102259.66;5002277;28;20479;-71
2023/05/29 00:22:44;;;;;;;;;;;;;;;11.15;64.18;102263.59;5027706;28;20517;-71
2023/05/29 00:25:09;;;;;;;;;;;;;;;11.19;64.13;102256.72;5012035;28;19939;-71
2023/05/29 00:27:35;;;;;;;;;;;;;;;11.08;64.91;102254.88;5019697;28;20025;-70
2023/05/29 00:30:01;;;;;;;;;;;;;;;11.02;66.42;102263.03;5003391;28;20297;-73
2023/05/29 00:32:27;;;;;;;;;;;;;;;11.09;65.47;102269.09;5027904;28;19999;-72
2023/05/29 00:34:53;;;;;;;;;;;;;;;11.06;65.50;102265.03;4988650;28;20034;-72
2023/05/29 00:37:18;;;;;;;;;;;;;;;10.99;66.06;102280.41;5027562;28;19950;-70
2023/05/29 00:39:44;;;;;;;;;;;;;;;10.93;67.24;102276.00;5031870;28;19937;-72
2023/05/29 00:42:10;;;;;;;;;;;;;;;10.97;66.43;102284.38;5003905;28;19958;-71
2023/05/29 00:44:36;;;;;;;;;;;;;;;10.93;67.00;102286.72;5023767;28;19931;-73
2023/05/29 00:47:02;;;;;;;;;;;;;;;10.98;66.35;102284.16;5028711;28;19955;-71
2023/05/29 00:49:28;;;;;;;;;;;;;;;10.83;67.40;102302.53;5029788;28;19937;-72
2023/05/29 00:51:54;;;;;;;;;;;;;;;10.80;67.62;102297.66;5010788;28;20441;-71
2023/05/29 00:54:27;;;;;;;;;;;;;;;10.72;67.58;102304.19;5047075;28;19942;-73
2023/05/29 00:56:56;;;;;;;;;;;;;;;10.63;67.15;102319.81;5028903;28;20259;-71
2023/05/29 00:59:23;;;;;;;;;;;;;;;10.64;66.60;102320.63;4998654;28;19950;-72
2023/05/29 01:01:51;;;;;;;;;;;;;;;10.60;66.24;102314.06;5011775;28;20425;-72
2023/05/29 01:04:17;;;;;;;;;;;;;;;10.61;65.86;102318.38;5029431;28;19933;-72
2023/05/29 01:06:43;;;;;;;;;;;;;;;10.54;65.92;102323.84;5026937;28;20368;-71
2023/05/29 01:09:09;;;;;;;;;;;;;;;10.47;66.56;102325.81;5011040;28;19992;-74
2023/05/29 01:11:42;;;;;;;;;;;;;;;10.38;66.47;102324.53;5029591;28;19933;-72
2023/05/29 01:14:09;;;;;;;;;;;;;;;10.33;65.67;102325.19;4989910;28;19944;-73
2023/05/29 01:16:47;;;;;;;;;;;;;;;10.21;66.47;102337.72;5026618;28;19945;-71
2023/05/29 01:19:28;;;;;;;;;;;;;;;10.13;67.24;102344.19;5007976;28;19940;-71
2023/05/29 01:22:21;;;;;;;;;;;;;;;10.00;68.04;102341.72;5038982;28;19954;-71
2023/05/29 01:24:57;;;;;;;;;;;;;;;9.94;67.03;102342.59;5025575;28;20468;-70
2023/05/29 01:27:25;;;;;;;;;;;;;;;9.80;67.68;102346.50;5025818;28;19946;-72
2023/05/29 01:29:51;;;;;;;;;;;;;;;9.78;66.98;102345.91;5025743;28;19928;-71
2023/05/29 01:32:17;;;;;;;;;;;;;;;9.68;67.47;102337.59;5028958;28;19981;-71
2023/05/29 01:34:45;;;;;;;;;;;;;;;9.67;66.79;102339.44;5037839;28;19993;-71
2023/05/29 01:37:11;;;;;;;;;;;;;;;9.54;67.12;102337.75;5023886;28;20642;-72
2023/05/29 01:39:36;;;;;;;;;;;;;;;9.47;67.76;102342.34;5044283;28;19943;-74
2023/05/29 01:42:02;;;;;;;;;;;;;;;9.30;67.84;102342.13;5009893;28;19980;-73
2023/05/29 01:44:29;;;;;;;;;;;;;;;9.35;67.90;102338.81;5041945;28;19993;-72
2023/05/29 01:46:55;;;;;;;;;;;;;;;9.06;69.88;102339.50;5025328;28;19933;-72
2023/05/29 01:49:23;;;;;;;;;;;;;;;8.96;68.81;102332.81;5026195;28;20792;-71
2023/05/29 01:51:48;;;;;;;;;;;;;;;8.85;69.20;102349.56;5026573;28;19933;-71
2023/05/29 01:54:14;;;;;;;;;;;;;;;8.79;69.19;102345.06;5042412;28;20423;-72
2023/05/29 01:56:41;;;;;;;;;;;;;;;8.84;69.15;102347.91;5014207;28;19938;-71
2023/05/29 01:59:07;;;;;;;;;;;;;;;8.82;69.43;102344.66;5013935;28;20585;-71
2023/05/29 02:01:33;;;;;;;;;;;;;;;8.72;69.56;102352.34;5026991;28;20593;-72
2023/05/29 02:03:58;;;;;;;;;;;;;;;8.67;69.78;102341.47;5012613;28;19945;-72
2023/05/29 02:06:27;;;;;;;;;;;;;;;8.68;69.25;102351.16;5023970;28;19992;-72
2023/05/29 02:08:54;;;;;;;;;;;;;;;8.51;70.74;102347.38;4999975;28;20018;-71
2023/05/29 02:11:20;;;;;;;;;;;;;;;8.50;71.16;102345.72;5013099;28;19931;-72
2023/05/29 02:13:45;;;;;;;;;;;;;;;8.35;71.78;102351.34;5017894;28;19935;-74
2023/05/29 02:16:11;;;;;;;;;;;;;;;8.33;71.52;102351.56;5013420;28;20181;-72
2023/05/29 02:18:36;;;;;;;;;;;;;;;8.23;71.98;102353.06;5026363;28;19973;-74
2023/05/29 02:21:02;;;;;;;;;;;;;;;8.31;71.95;102356.28;5026187;28;20036;-73
2023/05/29 02:23:29;;;;;;;;;;;;;;;8.42;71.32;102360.97;5024991;28;19953;-70
2023/05/29 02:25:55;;;;;;;;;;;;;;;8.42;71.81;102355.63;5028268;28;19935;-73
2023/05/29 02:28:20;;;;;;;;;;;;;;;8.22;72.58;102352.25;5036621;28;19952;-72
2023/05/29 02:30:46;;;;;;;;;;;;;;;8.03;73.33;102361.16;5009135;28;19956;-74
2023/05/29 02:33:11;;;;;;;;;;;;;;;7.98;73.68;102366.31;5013997;28;20071;-72
2023/05/29 02:35:37;;;;;;;;;;;;;;;7.96;74.08;102360.38;5030278;28;20005;-72
2023/05/29 02:38:03;;;;;;;;;;;;;;;7.88;75.10;102356.94;5029321;28;20310;-71
2023/05/29 02:40:30;;;;;;;;;;;;;;;7.85;74.46;102353.84;5028764;28;19941;-70
2023/05/29 02:42:57;;;;;;;;;;;;;;;7.90;73.84;102352.19;5010311;28;19956;-73
2023/05/29 02:45:23;;;;;;;;;;;;;;;7.76;75.06;102345.28;5025375;28;19968;-70
2023/05/29 02:47:48;;;;;;;;;;;;;;;7.75;74.11;102350.84;5012336;28;19947;-72
2023/05/29 02:50:14;;;;;;;;;;;;;;;7.48;76.38;102353.59;5029834;28;20396;-72
2023/05/29 02:52:40;;;;;;;;;;;;;;;7.32;77.49;102354.88;5012160;28;19944;-71
2023/05/29 02:55:06;;;;;;;;;;;;;;;7.15;77.36;102350.19;4996023;28;19955;-72
2023/05/29 02:57:32;;;;;;;;;;;;;;;7.29;77.24;102360.59;5027401;28;19976;-75
2023/05/29 02:59:57;;;;;;;;;;;;;;;7.20;78.01;102350.38;5027585;28;19972;-72
2023/05/29 03:02:23;;;;;;;;;;;;;;;7.37;77.64;102356.88;5009244;28;20013;-72
2023/05/29 03:04:50;;;;;;;;;;;;;;;7.37;77.45;102347.03;5023850;28;19943;-72
2023/05/29 03:07:16;;;;;;;;;;;;;;;7.33;77.43;102345.84;5041134;28;20354;-72
2023/05/29 03:09:41;;;;;;;;;;;;;;;7.15;79.06;102351.00;4993334;28;19941;-72
2023/05/29 03:12:08;;;;;;;;;;;;;;;7.01;79.29;102357.38;5008510;28;19927;-72
2023/05/29 03:14:36;;;;;;;;;;;;;;;6.91;79.55;102354.28;5019706;28;19943;-72
2023/05/29 03:17:05;;;;;;;;;;;;;;;6.99;79.08;102354.09;5016489;28;19969;-72
2023/05/29 03:19:31;;;;;;;;;;;;;;;6.77;79.33;102354.31;5012188;28;19933;-74
2023/05/29 03:21:57;;;;;;;;;;;;;;;6.98;79.36;102358.59;5042848;28;20437;-73
2023/05/29 03:24:23;;;;;;;;;;;;;;;7.08;79.31;102364.31;4996143;28;19936;-70
2023/05/29 03:26:52;;;;;;;;;;;;;;;7.19;78.04;102364.72;5029004;28;19943;-72
2023/05/29 03:29:18;;;;;;;;;;;;;;;7.21;78.68;102355.50;5022975;28;19937;-73
2023/05/29 03:31:45;;;;;;;;;;;;;;;7.28;77.73;102358.97;5015117;28;20414;-73
2023/05/29 03:34:14;;;;;;;;;;;;;;;7.10;79.61;102362.25;4994135;28;20275;-72
2023/05/29 03:36:43;;;;;;;;;;;;;;;7.18;79.00;102358.59;5028055;28;20361;-72
2023/05/29 03:39:09;;;;;;;;;;;;;;;7.24;78.20;102357.72;5024772;28;19952;-72
2023/05/29 03:41:35;;;;;;;;;;;;;;;7.25;78.25;102359.41;5008039;28;20012;-73
2023/05/29 03:44:02;;;;;;;;;;;;;;;7.35;77.81;102358.94;5032094;28;20038;-72
2023/05/29 03:46:28;;;;;;;;;;;;;;;7.41;76.81;102363.44;5040881;28;20022;-71
2023/05/29 03:48:58;;;;;;;;;;;;;;;7.36;78.26;102361.41;5024068;28;19949;-72
2023/05/29 03:51:24;;;;;;;;;;;;;;;7.54;76.12;102367.94;5009307;28;19945;-71
2023/05/29 03:53:52;;;;;;;;;;;;;;;7.76;75.03;102365.81;5030206;28;19932;-72
2023/05/29 03:56:19;;;;;;;;;;;;;;;7.63;75.33;102367.47;5011155;28;19936;-73
2023/05/29 03:58:48;;;;;;;;;;;;;;;7.71;75.02;102371.75;5026092;28;19954;-74
2023/05/29 04:01:14;;;;;;;;;;;;;;;7.82;74.18;102372.97;5011743;28;19985;-73
2023/05/29 04:03:44;;;;;;;;;;;;;;;7.80;73.80;102373.19;5023048;28;19955;-72
2023/05/29 04:06:11;;;;;;;;;;;;;;;7.93;73.48;102362.47;5042807;28;19937;-73
2023/05/29 04:08:37;;;;;;;;;;;;;;;7.97;72.79;102378.03;5010209;28;19957;-74
2023/05/29 04:11:03;;;;;;;;;;;;;;;7.96;73.11;102377.22;5022535;28;19982;-73
2023/05/29 04:13:31;;;;;;;;;;;;;;;7.89;74.64;102382.56;5008784;28;19935;-73
2023/05/29 04:15:56;;;;;;;;;;;;;;;7.85;74.52;102391.19;5010634;28;20408;-73
2023/05/29 04:18:21;;;;;;;;;;;;;;;7.80;76.14;102386.53;5018732;28;19995;-72
2023/05/29 04:20:47;;;;;;;;;;;;;;;7.86;74.17;102395.53;5004708;28;20021;-72
2023/05/29 04:23:14;;;;;;;;;;;;;;;7.81;73.25;102387.34;5044441;28;19954;-73
2023/05/29 04:25:41;;;;;;;;;;;;;;;7.92;73.54;102387.50;5019491;28;19987;-72
2023/05/29 04:28:07;;;;;;;;;;;;;;;7.94;73.49;102396.09;5023492;28;20437;-71
2023/05/29 04:30:33;;;;;;;;;;;;;;;8.05;73.28;102397.28;5025777;28;19937;-71
2023/05/29 04:33:00;;;;;;;;;;;;;;;8.10;73.81;102394.78;5038708;28;19934;-72
2023/05/29 04:35:30;;;;;;;;;;;;;;;8.20;72.99;102410.38;5024019;28;19938;-72
2023/05/29 04:37:58;;;;;;;;;;;;;;;8.10;73.55;102392.13;5023100;28;20498;-72
2023/05/29 04:40:28;;;;;;;;;;;;;;;8.13;72.70;102399.72;5012092;28;19974;-72
2023/05/29 04:42:54;;;;;;;;;;;;;;;8.20;71.91;102399.69;5043757;28;19960;-72
2023/05/29 04:45:24;;;;;;;;;;;;;;;8.23;72.75;102404.59;5027201;28;19935;-72
2023/05/29 04:47:53;;;;;;;;;;;;;;;8.34;73.89;102406.59;5029261;28;19957;-72
2023/05/29 04:50:31;;;;;;;;;;;;;;;8.54;71.24;102400.34;5028654;28;20255;-72
2023/05/29 04:52:58;;;;;;;;;;;;;;;8.40;71.45;102395.09;5023370;28;19946;-71
2023/05/29 04:55:27;;;;;;;;;;;;;;;8.44;72.08;102395.47;5024374;28;19928;-72
2023/05/29 04:57:53;;;;;;;;;;;;;;;8.57;70.98;102411.41;4998275;28;19957;-72
2023/05/29 05:00:19;;;;;;;;;;;;;;;8.63;70.60;102410.53;5011478;28;20641;-71
2023/05/29 05:02:44;;;;;;;;;;;;;;;8.78;69.68;102412.91;5008897;28;19960;-72
2023/05/29 05:05:12;;;;;;;;;;;;;;;8.83;69.75;102421.09;5026126;28;19992;-73
2023/05/29 05:07:37;;;;;;;;;;;;;;;8.80;69.76;102418.84;5029052;28;20096;-72
2023/05/29 05:10:04;;;;;;;;;;;;;;;8.94;69.44;102417.72;5031476;28;19950;-72
2023/05/29 05:12:30;;;;;;;;;;;;;;;9.00;70.08;102414.16;5028221;28;19938;-72
2023/05/29 05:14:56;;;;;;;;;;;;;;;9.13;68.86;102409.75;5016092;28;19934;-71
2023/05/29 05:17:23;;;;;;;;;;;;;;;8.99;68.77;102409.84;5011310;28;21000;-72
2023/05/29 05:19:49;;;;;;;;;;;;;;;8.88;69.26;102417.78;4997692;28;19939;-70
2023/05/29 05:22:15;;;;;;;;;;;;;;;8.84;68.67;102421.91;5048506;28;20486;-73
2023/05/29 05:24:41;;;;;;;;;;;;;;;9.02;68.99;102425.47;5033967;28;20024;-71
2023/05/29 05:27:06;;;;;;;;;;;;;;;9.09;68.32;102424.59;5009138;28;19955;-71
2023/05/29 05:29:33;;;;;;;;;;;;;;;9.25;68.47;102432.06;5009832;28;19990;-73
2023/05/29 05:31:59;;;;;;;;;;;;;;;9.27;68.57;102427.31;5030934;28;19939;-72
2023/05/29 05:34:27;;;;;;;;;;;;;;;9.31;69.63;102417.81;5030188;28;19938;-70
2023/05/29 05:36:53;;;;;;;;;;;;;;;9.30;68.16;102421.53;5028593;28;20025;-72
2023/05/29 05:39:19;;;;;;;;;;;;;;;9.25;67.00;102421.38;5027813;28;20378;-72
2023/05/29 05:41:50;;;;;;;;;;;;;;;9.47;66.65;102421.75;5012751;28;19951;-72
2023/05/29 05:44:28;;;;;;;;;;;;;;;9.60;66.52;102421.63;5022266;28;19938;-73
2023/05/29 05:47:06;;;;;;;;;;;;;;;9.54;66.86;102420.66;5015948;28;19980;-71
2023/05/29 05:49:31;;;;;;;;;;;;;;;9.78;66.08;102423.50;5029980;28;19973;-70
2023/05/29 05:51:56;;;;;;;;;;;;;;;10.00;66.43;102415.84;5029649;28;19945;-71
2023/05/29 05:54:22;;;;;;;;;;;;;;;10.03;66.29;102420.75;5019800;28;20048;-72
2023/05/29 05:56:48;;;;;;;;;;;;;;;10.23;63.98;102421.34;5023928;28;19940;-73
2023/05/29 05:59:16;;;;;;;;;;;;;;;10.27;65.21;102419.03;5031437;28;20002;-72
2023/05/29 06:01:42;;;;;;;;;;;;;;;10.14;63.83;102411.94;5023954;28;20743;-74
2023/05/29 06:04:08;;;;;;;;;;;;;;;10.42;63.76;102414.06;5026521;28;19996;-73
2023/05/29 06:06:35;;;;;;;;;;;;;;;10.31;63.85;102412.19;5009845;28;19936;-72
2023/05/29 06:09:01;;;;;;;;;;;;;;;10.51;63.42;102420.75;5010752;28;19949;-73
2023/05/29 06:11:27;;;;;;;;;;;;;;;10.56;64.40;102420.88;5041354;28;20401;-72
2023/05/29 06:13:54;;;;;;;;;;;;;;;10.76;63.23;102417.88;5026230;28;19942;-72
2023/05/29 06:16:23;;;;;;;;;;;;;;;10.84;64.82;102419.44;5029226;28;20033;-73
2023/05/29 06:18:52;;;;;;;;;;;;;;;10.80;61.85;102424.44;5010613;28;19944;-73
2023/05/29 06:21:18;;;;;;;;;;;;;;;10.92;61.75;102424.47;5027863;28;19931;-73
2023/05/29 06:23:50;;;;;;;;;;;;;;;11.09;61.86;102430.78;5009569;28;19979;-73
2023/05/29 06:26:16;;;;;;;;;;;;;;;10.89;61.02;102432.94;5030873;28;19973;-72
2023/05/29 06:28:42;;;;;;;;;;;;;;;11.06;60.86;102411.66;5027807;28;19955;-71
2023/05/29 06:31:07;;;;;;;;;;;;;;;11.29;62.78;102417.03;5028481;28;19929;-70
2023/05/29 06:33:33;;;;;;;;;;;;;;;11.15;59.93;102419.13;5025016;28;19939;-71
2023/05/29 06:35:59;;;;;;;;;;;;;;;11.49;60.21;102409.44;5009465;28;19977;-71
2023/05/29 06:38:24;;;;;;;;;;;;;;;11.20;60.02;102410.38;5020687;28;19955;-71
2023/05/29 06:40:50;;;;;;;;;;;;;;;11.45;61.03;102416.34;5010566;28;19938;-72
2023/05/29 06:43:15;;;;;;;;;;;;;;;11.58;60.42;102417.94;5030493;28;19947;-71
2023/05/29 06:45:46;;;;;;;;;;;;;;;11.92;58.71;102412.75;5026566;28;19932;-71
2023/05/29 06:48:12;;;;;;;;;;;;;;;12.02;57.79;102424.53;5032086;28;19970;-72
2023/05/29 06:50:39;;;;;;;;;;;;;;;12.00;56.73;102423.16;5030121;28;19928;-70
2023/05/29 06:53:24;;;;;;;;;;;;;;;12.01;56.94;102422.09;5015677;28;20581;-71
2023/05/29 06:55:54;;;;;;;;;;;;;;;12.33;57.04;102425.13;5027859;28;19934;-71
2023/05/29 06:58:20;;;;;;;;;;;;;;;12.03;57.61;102431.53;5013374;28;19950;-73
2023/05/29 07:00:45;;;;;;;;;;;;;;;12.09;58.46;102424.41;5038436;28;19942;-71
2023/05/29 07:03:20;;;;;;;;;;;;;;;12.07;57.59;102426.50;5017084;28;19958;-72
2023/05/29 07:05:47;;;;;;;;;;;;;;;12.33;56.67;102427.81;5001006;28;19946;-72
2023/05/29 07:08:12;;;;;;;;;;;;;;;12.46;58.54;102424.00;5002869;28;19950;-70
2023/05/29 07:10:38;;;;;;;;;;;;;;;12.40;56.79;102428.50;5006051;28;19940;-72
2023/05/29 07:13:06;;;;;;;;;;;;;;;12.64;60.90;102431.06;5006225;28;19940;-71
2023/05/29 07:15:32;;;;;;;;;;;;;;;12.48;56.59;102438.84;5013969;28;19976;-70
2023/05/29 07:17:57;;;;;;;;;;;;;;;12.82;58.03;102433.53;5027621;28;19985;-71
2023/05/29 07:20:25;;;;;;;;;;;;;;;13.01;55.51;102437.63;5015144;28;19940;-72
2023/05/29 07:22:52;;;;;;;;;;;;;;;12.74;54.68;102432.06;5028517;28;20044;-71
2023/05/29 07:25:17;;;;;;;;;;;;;;;12.90;54.63;102429.63;5014649;28;20026;-72
2023/05/29 07:27:43;;;;;;;;;;;;;;;13.00;55.69;102435.16;5014476;28;19949;-70
2023/05/29 07:30:10;;;;;;;;;;;;;;;12.63;56.17;102437.50;5034889;28;19931;-72
2023/05/29 07:32:36;;;;;;;;;;;;;;;12.65;55.05;102438.88;5021074;28;19965;-72
2023/05/29 07:35:01;;;;;;;;;;;;;;;12.86;55.91;102442.72;5009980;28;20096;-72
2023/05/29 07:37:29;;;;;;;;;;;;;;;13.01;55.32;102442.19;5020532;28;19958;-73
2023/05/29 07:39:56;;;;;;;;;;;;;;;13.49;53.85;102452.38;5027656;28;19938;-74
2023/05/29 07:42:41;;;;;;;;;;;;;;;13.49;55.12;102446.16;5017751;28;19949;-71
2023/05/29 07:45:07;;;;;;;;;;;;;;;13.56;54.33;102450.31;5027125;28;19939;-72
2023/05/29 07:47:33;;;;;;;;;;;;;;;13.47;53.12;102434.81;5011434;28;20345;-72
2023/05/29 07:49:58;;;;;;;;;;;;;;;13.93;52.88;102439.75;5029688;28;19938;-71
2023/05/29 07:52:28;;;;;;;;;;;;;;;13.86;52.10;102449.09;5028025;28;19933;-73
2023/05/29 07:54:55;;;;;;;;;;;;;;;13.98;53.66;102454.34;4992813;28;20116;-73
2023/05/29 07:57:23;;;;;;;;;;;;;;;13.81;51.59;102446.31;4995549;28;20449;-72
2023/05/29 07:59:49;;;;;;;;;;;;;;;14.45;54.08;102446.53;5026340;28;19941;-71
2023/05/29 08:02:16;;;;;;;;;;;;;;;14.44;52.62;102461.09;5009109;28;19945;-70
2023/05/29 08:05:08;;;;;;;;;;;;;;;14.00;50.71;102452.22;5015724;28;20640;-74
2023/05/29 08:07:35;;;;;;;;;;;;;;;13.92;51.70;102458.84;5046540;28;19990;-72
2023/05/29 08:10:01;;;;;;;;;;;;;;;14.33;51.65;102460.16;5005614;28;19943;-70
2023/05/29 08:12:26;;;;;;;;;;;;;;;14.24;50.79;102456.28;5052038;28;19932;-70
2023/05/29 08:14:54;;;;;;;;;;;;;;;14.57;50.57;102443.72;5048716;28;19938;-71
2023/05/29 08:17:20;;;;;;;;;;;;;;;14.56;51.70;102460.94;5015726;28;19953;-71
2023/05/29 08:19:46;;;;;;;;;;;;;;;14.94;51.38;102444.59;5023956;28;19942;-73
2023/05/29 08:22:12;;;;;;;;;;;;;;;14.81;50.40;102445.00;5029114;28;20003;-73
2023/05/29 08:24:38;;;;;;;;;;;;;;;15.07;50.49;102445.22;5019875;28;19972;-71
2023/05/29 08:27:07;;;;;;;;;;;;;;;14.90;49.26;102442.66;5017200;28;20353;-71
2023/05/29 08:29:33;;;;;;;;;;;;;;;14.44;51.12;102447.63;5041038;28;19980;-75
2023/05/29 08:31:59;;;;;;;;;;;;;;;14.44;50.69;102458.41;5005052;28;19942;-72
2023/05/29 08:34:25;;;;;;;;;;;;;;;14.80;52.90;102447.97;5004328;28;19949;-71
2023/05/29 08:36:51;;;;;;;;;;;;;;;15.06;51.31;102440.91;5027352;28;20022;-70
2023/05/29 08:39:17;;;;;;;;;;;;;;;15.05;48.97;102440.09;5007858;28;20255;-72
2023/05/29 08:42:02;;;;;;;;;;;;;;;15.24;48.41;102432.38;5038097;28;20037;-72
2023/05/29 08:44:29;;;;;;;;;;;;;;;15.92;47.08;102430.66;5031995;28;19943;-70
2023/05/29 08:46:55;;;;;;;;;;;;;;;16.03;47.08;102435.00;5027311;28;20409;-71
2023/05/29 08:49:22;;;;;;;;;;;;;;;16.26;47.19;102441.03;5025763;28;19934;-73
2023/05/29 08:51:53;;;;;;;;;;;;;;;15.76;46.70;102445.97;5031868;28;19936;-70
2023/05/29 08:54:20;;;;;;;;;;;;;;;15.88;46.07;102442.25;5047706;28;19933;-74
2023/05/29 08:56:46;;;;;;;;;;;;;;;15.78;45.21;102437.59;5014131;28;19937;-71
2023/05/29 08:59:12;;;;;;;;;;;;;;;15.47;47.03;102437.41;5044044;28;19934;-73
2023/05/29 09:01:38;;;;;;;;;;;;;;;15.35;46.08;102449.47;5030144;28;19938;-70
2023/05/29 09:04:04;;;;;;;;;;;;;;;15.40;45.69;102438.72;5031315;28;20414;-70
2023/05/29 09:06:30;;;;;;;;;;;;;;;15.74;45.99;102439.22;5029517;28;19983;-72
2023/05/29 09:08:57;;;;;;;;;;;;;;;16.34;45.53;102438.63;5031496;28;20419;-71
2023/05/29 09:11:23;;;;;;;;;;;;;;;16.24;44.48;102443.16;5051909;28;20025;-72
2023/05/29 09:13:48;;;;;;;;;;;;;;;15.70;46.42;102435.41;5049267;28;20072;-71
2023/05/29 09:16:17;;;;;;;;;;;;;;;16.32;44.81;102431.81;5029557;28;19981;-71
2023/05/29 09:18:46;;;;;;;;;;;;;;;16.65;43.68;102436.75;5042870;28;20020;-71
2023/05/29 09:21:25;;;;;;;;;;;;;;;16.84;45.58;102444.38;5044909;28;19935;-72
2023/05/29 09:23:54;;;;;;;;;;;;;;;17.48;44.52;102446.50;5029895;28;20048;-73
2023/05/29 09:26:24;;;;;;;;;;;;;;;17.29;42.21;102442.72;5014931;28;19934;-72
2023/05/29 09:28:50;;;;;;;;;;;;;;;17.32;42.57;102451.09;5009748;28;19954;-70
2023/05/29 09:31:21;;;;;;;;;;;;;;;17.66;43.60;102445.88;5006819;28;19988;-73
2023/05/29 09:33:48;;;;;;;;;;;;;;;17.63;42.99;102449.16;5045501;28;19982;-70
2023/05/29 09:36:21;;;;;;;;;;;;;;;17.46;43.12;102445.94;5027113;28;19933;-72
2023/05/29 09:38:51;;;;;;;;;;;;;;;17.30;42.02;102449.78;5048406;28;19950;-73
2023/05/29 09:41:23;;;;;;;;;;;;;;;16.88;42.92;102453.59;5041769;28;19940;-72
2023/05/29 09:43:49;;;;;;;;;;;;;;;17.29;42.11;102453.56;5004885;28;19953;-72
2023/05/29 09:46:17;;;;;;;;;;;;;;;17.48;41.69;102443.78;5030605;28;19929;-73
2023/05/29 09:48:43;;;;;;;;;;;;;;;17.32;41.65;102445.69;5028781;28;20385;-72
2023/05/29 09:51:19;;;;;;;;;;;;;;;17.06;41.80;102444.91;5041825;28;19958;-73
2023/05/29 09:53:46;;;;;;;;;;;;;;;17.35;41.85;102444.34;5047764;28;19956;-72
2023/05/29 09:56:13;;;;;;;;;;;;;;;17.23;42.09;102435.69;5016248;28;19932;-73
2023/05/29 09:58:45;;;;;;;;;;;;;;;17.38;43.70;102447.31;5012908;28;19971;-71
2023/05/29 10:01:12;;;;;;;;;;;;;;;17.31;43.19;102441.38;5042311;28;19938;-73
2023/05/29 10:03:38;;;;;;;;;;;;;;;17.66;42.41;102447.78;5013705;28;20057;-72
2023/05/29 10:06:05;;;;;;;;;;;;;;;17.56;42.85;102445.13;5020905;28;19960;-72
2023/05/29 10:08:31;;;;;;;;;;;;;;;17.63;40.41;102449.16;5048091;28;19951;-71
2023/05/29 10:11:01;;;;;;;;;;;;;;;17.82;40.63;102441.25;5038726;28;19930;-72
2023/05/29 10:13:31;;;;;;;;;;;;;;;18.26;39.46;102437.78;5015978;28;19967;-73
2023/05/29 10:15:58;;;;;;;;;;;;;;;18.11;41.71;102425.13;5010356;28;19941;-72
2023/05/29 10:18:26;;;;;;;;;;;;;;;17.77;41.29;102424.22;5007065;28;19953;-71
2023/05/29 10:20:55;;;;;;;;;;;;;;;17.54;40.68;102417.47;5023931;28;20363;-70
2023/05/29 10:23:28;;;;;;;;;;;;;;;17.84;43.54;102422.81;5011372;28;19984;-71
2023/05/29 10:26:06;;;;;;;;;;;;;;;18.05;41.18;102423.53;5022519;28;19938;-71
2023/05/29 10:28:33;;;;;;;;;;;;;;;18.43;40.78;102413.03;5019434;28;19955;-71
2023/05/29 10:31:05;;;;;;;;;;;;;;;18.38;41.62;102421.19;5026351;28;19938;-73
2023/05/29 10:33:37;;;;;;;;;;;;;;;18.40;40.19;102416.28;5028327;28;20020;-71
2023/05/29 10:36:13;;;;;;;;;;;;;;;18.24;40.99;102426.41;5047080;28;19939;-71
2023/05/29 10:38:44;;;;;;;;;;;;;;;18.50;41.07;102417.03;5039006;28;19946;-72
2023/05/29 10:41:28;;;;;;;;;;;;;;;18.85;41.58;102412.44;5022564;28;19931;-72
2023/05/29 10:44:03;;;;;;;;;;;;;;;18.45;39.72;102402.69;5040672;28;19954;-72
2023/05/29 10:46:48;;;;;;;;;;;;;;;19.09;40.14;102401.63;5028406;28;19989;-72
2023/05/29 10:49:17;;;;;;;;;;;;;;;19.20;38.42;102400.44;5017227;28;19934;-72
2023/05/29 10:51:43;;;;;;;;;;;;;;;19.45;40.01;102404.78;5024809;28;19932;-72
2023/05/29 10:54:08;;;;;;;;;;;;;;;19.12;38.58;102398.34;5023250;28;19942;-72
2023/05/29 10:56:34;;;;;;;;;;;;;;;19.25;38.52;102394.94;5025160;28;20246;-72
2023/05/29 10:59:02;;;;;;;;;;;;;;;19.77;40.33;102401.41;5042070;28;19952;-72
2023/05/29 11:01:28;;;;;;;;;;;;;;;19.33;38.86;102398.94;5042789;28;19936;-70
2023/05/29 11:04:26;;;;;;;;;;;;;;;18.85;39.66;102393.44;4999863;28;20003;-71
2023/05/29 11:06:52;;;;;;;;;;;;;;;19.15;38.41;102395.03;5006000;28;19953;-71
2023/05/29 11:09:31;;;;;;;;;;;;;;;18.77;38.04;102381.28;5005657;28;19929;-72
2023/05/29 11:12:13;;;;;;;;;;;;;;;19.22;39.59;102387.34;5040979;28;19934;-73
2023/05/29 11:14:52;;;;;;;;;;;;;;;19.55;36.58;102388.34;5038994;28;19974;-71
2023/05/29 11:17:30;;;;;;;;;;;;;;;19.13;37.45;102382.84;5045226;28;19952;-70
2023/05/29 11:19:56;;;;;;;;;;;;;;;19.35;34.92;102373.09;5045334;28;19934;-70
2023/05/29 11:22:26;;;;;;;;;;;;;;;19.40;38.06;102377.66;5025454;28;19961;-71
2023/05/29 11:24:52;;;;;;;;;;;;;;;20.08;35.97;102380.06;5022521;28;20010;-72
2023/05/29 11:27:18;;;;;;;;;;;;;;;19.65;35.91;102378.50;5023707;28;19954;-71
2023/05/29 11:29:45;;;;;;;;;;;;;;;19.65;35.67;102387.47;5009941;28;19941;-71
2023/05/29 11:32:13;;;;;;;;;;;;;;;20.21;38.89;102383.16;5021863;28;20305;-70
2023/05/29 11:34:42;;;;;;;;;;;;;;;19.62;35.33;102382.59;5053011;28;20389;-72
2023/05/29 11:37:07;;;;;;;;;;;;;;;20.08;35.88;102384.69;5026260;28;19944;-71
2023/05/29 11:39:37;;;;;;;;;;;;;;;20.74;34.98;102372.00;5011331;28;19936;-71
2023/05/29 11:42:12;;;;;;;;;;;;;;;20.55;37.22;102374.75;5022635;28;20055;-71
2023/05/29 11:44:37;;;;;;;;;;;;;;;20.16;36.29;102365.78;5028035;28;20099;-71
2023/05/29 11:47:04;;;;;;;;;;;;;;;19.65;35.18;102365.72;5007575;28;20030;-71
2023/05/29 11:49:33;;;;;;;;;;;;;;;20.96;37.65;102367.50;5034241;28;20405;-75
2023/05/29 11:52:25;;;;;;;;;;;;;;;20.64;36.88;102362.09;5028165;28;20461;-73
2023/05/29 11:54:53;;;;;;;;;;;;;;;20.64;34.95;102375.69;5043314;28;19935;-71
2023/05/29 11:57:19;;;;;;;;;;;;;;;20.51;36.18;102373.72;5025214;28;20050;-71
2023/05/29 11:59:45;;;;;;;;;;;;;;;20.03;36.07;102379.31;5026891;28;19934;-71
2023/05/29 12:02:11;;;;;;;;;;;;;;;20.53;33.79;102382.44;5013487;28;19956;-71
2023/05/29 12:04:36;;;;;;;;;;;;;;;20.94;35.17;102375.16;5014433;28;19927;-72
2023/05/29 12:07:16;;;;;;;;;;;;;;;20.84;34.32;102375.34;5015289;28;19948;-70
2023/05/29 12:09:41;;;;;;;;;;;;;;;21.07;33.49;102367.31;5029804;28;19936;-70
2023/05/29 12:12:07;;;;;;;;;;;;;;;21.88;35.56;102359.38;5028939;28;19944;-70
2023/05/29 12:14:35;;;;;;;;;;;;;;;21.34;33.92;102361.09;5033283;28;19939;-73
2023/05/29 12:17:01;;;;;;;;;;;;;;;21.05;34.81;102361.34;5031817;28;19946;-72
2023/05/29 12:19:27;;;;;;;;;;;;;;;22.03;35.83;102359.06;5048940;28;19931;-72
2023/05/29 12:21:52;;;;;;;;;;;;;;;21.57;35.41;102367.44;5034199;28;19933;-70
2023/05/29 12:24:19;;;;;;;;;;;;;;;22.16;32.98;102360.16;5024738;28;19942;-72
2023/05/29 12:26:47;;;;;;;;;;;;;;;21.80;33.59;102371.84;5008201;28;19940;-71
2023/05/29 12:29:12;;;;;;;;;;;;;;;21.70;32.50;102363.91;5026872;28;20152;-71
2023/05/29 12:31:39;;;;;;;;;;;;;;;21.64;32.81;102355.00;5046907;28;20028;-72
2023/05/29 12:34:08;;;;;;;;;;;;;;;21.71;32.72;102360.03;5014900;28;20003;-69
2023/05/29 12:36:34;;;;;;;;;;;;;;;22.06;33.33;102367.44;5034644;28;20034;-72
2023/05/29 12:39:00;;;;;;;;;;;;;;;22.76;33.17;102367.94;5023454;28;20014;-71
2023/05/29 12:41:27;;;;;;;;;;;;;;;22.92;31.75;102355.53;5010514;28;19941;-70
2023/05/29 12:43:55;;;;;;;;;;;;;;;22.20;31.62;102366.59;5046903;28;19966;-71